createdAt,value
2017-11-18T00:00:53.783Z,1.8
2017-11-18T00:01:53.765Z,1.8
2017-11-18T00:02:53.750Z,1.8
2017-11-18T00:03:53.728Z,1.84
2017-11-18T00:04:53.734Z,1.76
2017-11-18T00:05:53.706Z,1.79
2017-11-18T00:06:53.946Z,1.81
2017-11-18T00:07:53.682Z,1.83
2017-11-18T00:08:53.668Z,1.83
2017-11-18T00:09:53.384Z,1.81
2017-11-18T00:10:53.629Z,1.8
2017-11-18T00:11:53.610Z,1.84
2017-11-18T00:12:53.591Z,1.83
2017-11-18T00:13:53.580Z,1.87
2017-11-18T00:14:53.571Z,1.91
2017-11-18T00:15:53.556Z,1.91
2017-11-18T00:16:53.540Z,1.88
2017-11-18T00:17:53.520Z,1.91
2017-11-18T00:18:53.252Z,1.87
2017-11-18T00:19:53.529Z,1.95
2017-11-18T00:20:53.478Z,1.95
2017-11-18T00:21:53.457Z,2
2017-11-18T00:22:53.438Z,1.9
2017-11-18T00:23:53.451Z,1.95
2017-11-18T00:24:53.413Z,1.99
2017-11-18T00:25:53.403Z,1.99
2017-11-18T00:26:53.121Z,2.03
2017-11-18T00:27:53.381Z,2.03
2017-11-18T00:28:53.364Z,2.07
2017-11-18T00:29:53.351Z,2.03
2017-11-18T00:30:53.336Z,2.06
2017-11-18T00:31:53.323Z,2.12
2017-11-18T00:32:53.306Z,2.23
2017-11-18T00:33:53.276Z,2.17
2017-11-18T00:34:53.265Z,2.27
2017-11-18T00:35:53.251Z,2.34
2017-11-18T00:36:52.972Z,2.41
2017-11-18T00:37:53.224Z,2.35
2017-11-18T00:38:53.199Z,2.45
2017-11-18T00:39:53.183Z,2.42
2017-11-18T00:40:53.167Z,2.52
2017-11-18T00:41:53.156Z,2.57
2017-11-18T00:42:53.144Z,2.53
2017-11-18T00:43:53.131Z,2.57
2017-11-18T00:44:53.114Z,2.66
2017-11-18T00:45:53.101Z,2.53
2017-11-18T00:46:53.082Z,2.57
2017-11-18T00:47:53.064Z,2.54
2017-11-18T00:48:52.539Z,2.67
2017-11-18T00:49:53.036Z,2.69
2017-11-18T00:50:53.023Z,2.69
2017-11-18T00:51:53.009Z,2.69
2017-11-18T00:52:52.988Z,2.81
2017-11-18T00:53:52.723Z,2.81
2017-11-18T00:54:52.699Z,2.77
2017-11-18T00:55:52.960Z,2.95
2017-11-18T00:56:52.940Z,2.96
2017-11-18T00:57:52.915Z,2.95
2017-11-18T00:58:52.924Z,2.99
2017-11-18T00:59:52.883Z,3.05
2017-11-18T01:00:52.875Z,3.08
2017-11-18T01:01:52.860Z,3.15
2017-11-18T01:02:52.848Z,3.15
2017-11-18T01:03:52.831Z,3.24
2017-11-18T01:04:52.833Z,3.28
2017-11-18T01:05:52.804Z,3.35
2017-11-18T01:06:52.784Z,3.23
2017-11-18T01:07:52.772Z,3.4
2017-11-18T01:08:52.758Z,3.39
2017-11-18T01:09:52.758Z,3.4
2017-11-18T01:10:52.738Z,3.42
2017-11-18T01:11:52.720Z,3.42
2017-11-18T01:12:52.699Z,3.54
2017-11-18T01:13:52.697Z,3.5
2017-11-18T01:14:52.675Z,3.68
2017-11-18T01:15:52.659Z,3.66
2017-11-18T01:16:52.646Z,3.69
2017-11-18T01:17:52.641Z,3.72
2017-11-18T01:18:52.615Z,3.76
2017-11-18T01:19:52.613Z,3.83
2017-11-18T01:20:52.586Z,3.78
2017-11-18T01:21:52.575Z,3.78
2017-11-18T01:22:52.569Z,3.8
2017-11-18T01:23:52.557Z,3.93
2017-11-18T01:24:52.545Z,3.86
2017-11-18T01:25:52.526Z,3.87
2017-11-18T01:26:52.501Z,3.93
2017-11-18T01:27:52.494Z,3.93
2017-11-18T01:28:52.219Z,3.9
2017-11-18T01:29:52.456Z,3.87
2017-11-18T01:30:52.448Z,3.93
2017-11-18T01:31:52.429Z,3.9
2017-11-18T01:32:52.432Z,3.93
2017-11-18T01:33:52.141Z,3.88
2017-11-18T01:34:52.398Z,3.91
2017-11-18T01:35:52.125Z,3.94
2017-11-18T01:36:52.105Z,3.93
2017-11-18T01:37:52.350Z,3.9
2017-11-18T01:38:52.338Z,3.91
2017-11-18T01:39:52.061Z,3.9
2017-11-18T01:40:52.566Z,3.93
2017-11-18T01:41:52.295Z,3.91
2017-11-18T01:42:52.282Z,3.91
2017-11-18T01:43:52.264Z,3.9
2017-11-18T01:44:52.253Z,3.91
2017-11-18T01:45:52.233Z,3.91
2017-11-18T01:46:52.223Z,3.88
2017-11-18T01:47:52.221Z,3.96
2017-11-18T01:48:52.203Z,3.98
2017-11-18T01:49:52.188Z,3.88
2017-11-18T01:50:52.167Z,3.91
2017-11-18T01:51:52.154Z,4
2017-11-18T01:52:52.143Z,3.96
2017-11-18T01:53:52.128Z,3.93
2017-11-18T01:54:52.114Z,3.87
2017-11-18T01:55:52.101Z,3.88
2017-11-18T01:56:52.087Z,3.93
2017-11-18T01:57:52.072Z,3.87
2017-11-18T01:58:52.056Z,3.84
2017-11-18T01:59:52.039Z,3.83
2017-11-18T02:00:52.031Z,3.84
2017-11-18T02:01:51.764Z,3.84
2017-11-18T02:02:52.031Z,3.86
2017-11-18T02:03:51.989Z,3.83
2017-11-18T02:04:51.976Z,3.91
2017-11-18T02:05:52.006Z,3.84
2017-11-18T02:06:51.947Z,3.87
2017-11-18T02:07:51.934Z,3.87
2017-11-18T02:08:51.932Z,3.79
2017-11-18T02:09:51.912Z,3.91
2017-11-18T02:10:51.891Z,3.88
2017-11-18T02:11:52.124Z,3.83
2017-11-18T02:12:51.604Z,3.84
2017-11-18T02:13:51.845Z,3.86
2017-11-18T02:14:51.839Z,3.75
2017-11-18T02:15:51.816Z,3.78
2017-11-18T02:16:51.816Z,3.7
2017-11-18T02:17:51.805Z,3.7
2017-11-18T02:18:51.777Z,3.65
2017-11-18T02:19:51.769Z,3.65
2017-11-18T02:20:51.748Z,3.65
2017-11-18T02:21:51.739Z,3.55
2017-11-18T02:22:51.722Z,3.52
2017-11-18T02:23:51.711Z,3.48
2017-11-18T02:24:51.697Z,3.51
2017-11-18T02:25:51.690Z,3.4
2017-11-18T02:26:51.407Z,3.42
2017-11-18T02:27:51.664Z,3.36
2017-11-18T02:28:51.638Z,3.36
2017-11-18T02:29:51.627Z,3.24
2017-11-18T02:30:51.640Z,3.31
2017-11-18T02:31:51.609Z,3.24
2017-11-18T02:32:51.590Z,3.32
2017-11-18T02:33:51.571Z,3.2
2017-11-18T02:34:51.559Z,3.21
2017-11-18T02:35:51.548Z,3.03
2017-11-18T02:36:51.540Z,3.11
2017-11-18T02:37:51.534Z,3.05
2017-11-18T02:38:51.497Z,2.99
2017-11-18T02:39:51.491Z,3.06
2017-11-18T02:40:51.477Z,2.92
2017-11-18T02:41:51.474Z,2.95
2017-11-18T02:42:51.696Z,2.97
2017-11-18T02:43:51.434Z,2.87
2017-11-18T02:44:51.442Z,2.87
2017-11-18T02:45:51.407Z,2.78
2017-11-18T02:46:51.396Z,2.85
2017-11-18T02:47:51.377Z,2.82
2017-11-18T02:48:51.373Z,2.82
2017-11-18T02:49:51.358Z,2.79
2017-11-18T02:50:51.338Z,2.69
2017-11-18T02:51:51.329Z,2.66
2017-11-18T02:52:51.312Z,2.74
2017-11-18T02:53:51.294Z,2.69
2017-11-18T02:54:51.291Z,2.74
2017-11-18T02:55:51.256Z,2.69
2017-11-18T02:56:51.283Z,2.69
2017-11-18T02:57:50.967Z,2.74
2017-11-18T02:58:51.212Z,2.57
2017-11-18T02:59:51.208Z,2.59
2017-11-18T03:00:51.189Z,2.6
2017-11-18T03:01:51.170Z,2.59
2017-11-18T03:02:51.154Z,2.59
2017-11-18T03:03:51.142Z,2.61
2017-11-18T03:04:51.132Z,2.63
2017-11-18T03:05:51.108Z,2.6
2017-11-18T03:06:51.089Z,2.52
2017-11-18T03:07:51.078Z,2.57
2017-11-18T03:08:51.059Z,2.57
2017-11-18T03:09:51.061Z,2.59
2017-11-18T03:10:51.031Z,2.6
2017-11-18T03:11:51.024Z,2.54
2017-11-18T03:12:51.010Z,2.64
2017-11-18T03:13:50.989Z,2.6
2017-11-18T03:14:50.984Z,2.57
2017-11-18T03:15:50.993Z,2.61
2017-11-18T03:16:50.938Z,2.56
2017-11-18T03:17:50.675Z,2.57
2017-11-18T03:18:50.917Z,2.6
2017-11-18T03:19:50.902Z,2.57
2017-11-18T03:20:50.884Z,2.57
2017-11-18T03:21:50.872Z,2.66
2017-11-18T03:22:50.858Z,2.66
2017-11-18T03:23:50.839Z,2.71
2017-11-18T03:24:50.820Z,2.85
2017-11-18T03:25:50.820Z,2.87
2017-11-18T03:26:50.846Z,2.81
2017-11-18T03:27:50.812Z,2.92
2017-11-18T03:28:50.524Z,2.97
2017-11-18T03:29:50.753Z,3
2017-11-18T03:30:50.754Z,3
2017-11-18T03:31:50.732Z,2.97
2017-11-18T03:32:50.705Z,2.96
2017-11-18T03:33:50.707Z,2.95
2017-11-18T03:34:50.676Z,2.89
2017-11-18T03:35:50.663Z,3.06
2017-11-18T03:36:50.662Z,3.06
2017-11-18T03:37:50.378Z,3.11
2017-11-18T03:38:50.622Z,3.14
2017-11-18T03:39:50.610Z,3.15
2017-11-18T03:40:50.595Z,3.15
2017-11-18T03:41:50.584Z,3.26
2017-11-18T03:42:50.578Z,3.35
2017-11-18T03:43:50.558Z,3.29
2017-11-18T03:44:50.527Z,3.4
2017-11-18T03:45:50.530Z,3.35
2017-11-18T03:46:50.502Z,3.4
2017-11-18T03:47:50.494Z,3.42
2017-11-18T03:48:50.474Z,3.48
2017-11-18T03:49:50.464Z,3.58
2017-11-18T03:50:50.457Z,3.61
2017-11-18T03:51:50.442Z,3.7
2017-11-18T03:52:50.419Z,3.73
2017-11-18T03:53:50.411Z,3.7
2017-11-18T03:54:50.391Z,3.73
2017-11-18T03:55:50.377Z,3.8
2017-11-18T03:56:50.369Z,3.86
2017-11-18T03:57:50.352Z,3.87
2017-11-18T03:58:50.343Z,3.93
2017-11-18T03:59:50.325Z,3.9
2017-11-18T04:00:50.304Z,4.02
2017-11-18T04:01:50.291Z,4.08
2017-11-18T04:02:50.276Z,3.97
2017-11-18T04:03:50.264Z,4.11
2017-11-18T04:04:50.258Z,4.11
2017-11-18T04:05:50.231Z,4.16
2017-11-18T04:06:50.221Z,4.09
2017-11-18T04:07:50.206Z,4.09
2017-11-18T04:08:50.192Z,4.18
2017-11-18T04:09:50.184Z,4.15
2017-11-18T04:10:50.169Z,4.18
2017-11-18T04:11:50.155Z,4.2
2017-11-18T04:12:49.882Z,4.14
2017-11-18T04:13:50.131Z,4.24
2017-11-18T04:14:50.118Z,4.33
2017-11-18T04:15:50.096Z,4.26
2017-11-18T04:16:50.331Z,4.27
2017-11-18T04:17:50.073Z,4.36
2017-11-18T04:18:50.061Z,4.36
2017-11-18T04:19:50.038Z,4.4
2017-11-18T04:20:50.027Z,4.4
2017-11-18T04:21:50.019Z,4.36
2017-11-18T04:22:49.993Z,4.51
2017-11-18T04:23:49.987Z,4.52
2017-11-18T04:24:49.972Z,4.51
2017-11-18T04:25:49.971Z,4.55
2017-11-18T04:26:49.958Z,4.58
2017-11-18T04:27:49.965Z,4.55
2017-11-18T04:28:49.926Z,4.66
2017-11-18T04:29:49.905Z,4.63
2017-11-18T04:30:49.899Z,4.65
2017-11-18T04:31:49.883Z,4.59
2017-11-18T04:32:49.863Z,4.59
2017-11-18T04:33:49.849Z,4.65
2017-11-18T04:34:49.837Z,4.66
2017-11-18T04:35:49.824Z,4.69
2017-11-18T04:36:49.820Z,4.66
2017-11-18T04:37:49.809Z,4.65
2017-11-18T04:38:49.781Z,4.84
2017-11-18T04:39:49.770Z,4.69
2017-11-18T04:40:49.769Z,4.72
2017-11-18T04:41:49.752Z,4.67
2017-11-18T04:42:49.745Z,4.82
2017-11-18T04:43:49.718Z,4.77
2017-11-18T04:44:49.700Z,4.84
2017-11-18T04:45:49.691Z,4.86
2017-11-18T04:46:49.704Z,4.85
2017-11-18T04:47:49.914Z,4.85
2017-11-18T04:48:49.657Z,4.88
2017-11-18T04:49:49.647Z,4.94
2017-11-18T04:50:49.631Z,4.88
2017-11-18T04:51:49.602Z,4.89
2017-11-18T04:52:49.605Z,4.86
2017-11-18T04:53:49.588Z,4.96
2017-11-18T04:54:49.571Z,4.92
2017-11-18T04:55:49.557Z,4.96
2017-11-18T04:56:49.537Z,4.91
2017-11-18T04:57:49.529Z,4.94
2017-11-18T04:58:49.519Z,4.92
2017-11-18T04:59:49.505Z,4.94
2017-11-18T05:00:49.492Z,4.94
2017-11-18T05:01:49.486Z,4.96
2017-11-18T05:02:49.462Z,4.92
2017-11-18T05:03:49.456Z,4.96
2017-11-18T05:04:49.433Z,4.94
2017-11-18T05:05:49.437Z,4.97
2017-11-18T05:06:49.413Z,4.92
2017-11-18T05:07:49.392Z,4.96
2017-11-18T05:08:49.378Z,4.94
2017-11-18T05:09:49.376Z,4.99
2017-11-18T05:10:49.356Z,4.94
2017-11-18T05:11:49.348Z,4.99
2017-11-18T05:12:49.070Z,4.99
2017-11-18T05:13:49.312Z,4.96
2017-11-18T05:14:49.304Z,4.99
2017-11-18T05:15:49.290Z,4.94
2017-11-18T05:16:49.281Z,5
2017-11-18T05:17:49.283Z,4.99
2017-11-18T05:18:49.499Z,5.06
2017-11-18T05:19:49.238Z,5.03
2017-11-18T05:20:49.223Z,4.97
2017-11-18T05:21:49.211Z,4.96
2017-11-18T05:22:49.201Z,5.06
2017-11-18T05:23:49.196Z,4.99
2017-11-18T05:24:49.172Z,5.04
2017-11-18T05:25:49.158Z,5.04
2017-11-18T05:26:49.149Z,5.02
2017-11-18T05:27:49.135Z,5.09
2017-11-18T05:28:49.126Z,5.06
2017-11-18T05:29:49.109Z,5.02
2017-11-18T05:30:49.102Z,5.07
2017-11-18T05:31:49.082Z,5.1
2017-11-18T05:32:52.106Z,5.13
2017-11-18T05:33:49.056Z,5.06
2017-11-18T05:34:49.039Z,5.15
2017-11-18T05:35:49.027Z,5.17
2017-11-18T05:36:49.014Z,5.12
2017-11-18T05:37:48.999Z,5.21
2017-11-18T05:38:48.987Z,5.13
2017-11-18T05:39:48.981Z,5.18
2017-11-18T05:40:48.963Z,5.1
2017-11-18T05:41:48.964Z,5.18
2017-11-18T05:42:48.935Z,5.17
2017-11-18T05:43:48.921Z,5.15
2017-11-18T05:44:48.919Z,5.13
2017-11-18T05:45:48.894Z,5.17
2017-11-18T05:46:48.883Z,5.15
2017-11-18T05:47:48.875Z,5.12
2017-11-18T05:48:48.858Z,5.15
2017-11-18T05:49:48.840Z,5.21
2017-11-18T05:50:48.827Z,5.12
2017-11-18T05:51:48.821Z,5.07
2017-11-18T05:52:48.812Z,5.18
2017-11-18T05:53:48.805Z,5.21
2017-11-18T05:54:48.797Z,5.09
2017-11-18T05:55:48.775Z,5.13
2017-11-18T05:56:48.754Z,5.09
2017-11-18T05:57:48.735Z,5.12
2017-11-18T05:58:48.723Z,5.15
2017-11-18T05:59:48.713Z,5.2
2017-11-18T06:00:48.713Z,5.15
2017-11-18T06:01:48.687Z,5.17
2017-11-18T06:02:48.676Z,5.15
2017-11-18T06:03:48.664Z,5.17
2017-11-18T06:04:48.648Z,5.2
2017-11-18T06:05:48.633Z,5.22
2017-11-18T06:06:48.622Z,5.18
2017-11-18T06:07:48.605Z,5.22
2017-11-18T06:08:48.596Z,5.2
2017-11-18T06:09:48.585Z,5.21
2017-11-18T06:10:48.585Z,5.24
2017-11-18T06:11:48.566Z,5.28
2017-11-18T06:12:48.553Z,5.25
2017-11-18T06:13:48.537Z,5.28
2017-11-18T06:14:48.521Z,5.33
2017-11-18T06:15:48.507Z,5.22
2017-11-18T06:16:48.495Z,5.35
2017-11-18T06:17:48.487Z,5.33
2017-11-18T06:18:48.479Z,5.28
2017-11-18T06:19:48.496Z,5.33
2017-11-18T06:20:48.438Z,5.2
2017-11-18T06:21:48.427Z,5.35
2017-11-18T06:22:48.411Z,5.2
2017-11-18T06:23:48.402Z,5.27
2017-11-18T06:24:48.397Z,5.3
2017-11-18T06:25:48.377Z,5.24
2017-11-18T06:26:48.359Z,5.33
2017-11-18T06:27:48.354Z,5.39
2017-11-18T06:28:48.335Z,5.28
2017-11-18T06:29:48.328Z,5.3
2017-11-18T06:30:48.321Z,5.31
2017-11-18T06:31:48.303Z,5.27
2017-11-18T06:32:48.022Z,5.35
2017-11-18T06:33:48.014Z,5.39
2017-11-18T06:34:47.996Z,5.35
2017-11-18T06:35:48.258Z,5.36
2017-11-18T06:36:48.237Z,5.35
2017-11-18T06:37:48.226Z,5.38
2017-11-18T06:38:48.205Z,5.35
2017-11-18T06:39:48.204Z,5.4
2017-11-18T06:40:47.925Z,5.33
2017-11-18T06:41:48.169Z,5.3
2017-11-18T06:42:48.152Z,5.28
2017-11-18T06:43:48.158Z,5.3
2017-11-18T06:44:48.135Z,5.33
2017-11-18T06:45:48.115Z,5.35
2017-11-18T06:46:48.101Z,5.38
2017-11-18T06:47:48.090Z,5.36
2017-11-18T06:48:48.081Z,5.27
2017-11-18T06:49:48.070Z,5.38
2017-11-18T06:50:48.048Z,5.28
2017-11-18T06:51:48.035Z,5.21
2017-11-18T06:52:48.274Z,5.22
2017-11-18T06:53:48.009Z,5.24
2017-11-18T06:54:48.054Z,5.3
2017-11-18T06:55:47.987Z,5.25
2017-11-18T06:56:47.725Z,5.25
2017-11-18T06:57:47.979Z,5.18
2017-11-18T06:58:47.948Z,5.24
2017-11-18T06:59:47.937Z,5.09
2017-11-18T07:00:47.665Z,5.09
2017-11-18T07:01:47.909Z,5.18
2017-11-18T07:02:47.901Z,5.1
2017-11-18T07:03:47.629Z,5.21
2017-11-18T07:04:47.868Z,5.17
2017-11-18T07:05:47.607Z,5.22
2017-11-18T07:06:47.845Z,5.17
2017-11-18T07:07:47.839Z,5.28
2017-11-18T07:08:47.819Z,5.21
2017-11-18T07:09:47.807Z,5.25
2017-11-18T07:10:47.799Z,5.25
2017-11-18T07:11:47.776Z,5.24
2017-11-18T07:12:47.763Z,5.22
2017-11-18T07:13:47.763Z,5.28
2017-11-18T07:14:47.753Z,5.28
2017-11-18T07:15:47.753Z,5.25
2017-11-18T07:16:47.740Z,5.28
2017-11-18T07:17:47.701Z,5.3
2017-11-18T07:18:47.688Z,5.25
2017-11-18T07:19:47.672Z,5.17
2017-11-18T07:20:47.677Z,5.21
2017-11-18T07:21:47.649Z,5.12
2017-11-18T07:22:47.690Z,5.13
2017-11-18T07:23:47.879Z,5.13
2017-11-18T07:24:47.613Z,5.1
2017-11-18T07:25:47.599Z,5.13
2017-11-18T07:26:47.585Z,5.2
2017-11-18T07:27:47.569Z,5.13
2017-11-18T07:28:47.304Z,5.15
2017-11-18T07:29:47.546Z,5.12
2017-11-18T07:30:47.539Z,5.03
2017-11-18T07:31:47.517Z,5.06
2017-11-18T07:32:47.555Z,5.03
2017-11-18T07:33:47.493Z,4.99
2017-11-18T07:34:47.235Z,4.96
2017-11-18T07:35:47.476Z,4.91
2017-11-18T07:36:47.461Z,4.96
2017-11-18T07:37:47.444Z,4.92
2017-11-18T07:38:47.434Z,4.88
2017-11-18T07:39:47.420Z,4.78
2017-11-18T07:40:47.415Z,4.75
2017-11-18T07:41:47.390Z,4.84
2017-11-18T07:42:47.391Z,4.82
2017-11-18T07:43:47.373Z,4.73
2017-11-18T07:44:47.368Z,4.78
2017-11-18T07:45:47.338Z,4.67
2017-11-18T07:46:47.336Z,4.67
2017-11-18T07:47:47.312Z,4.67
2017-11-18T07:48:47.307Z,4.67
2017-11-18T07:49:47.286Z,4.72
2017-11-18T07:50:47.274Z,4.65
2017-11-18T07:51:47.262Z,4.72
2017-11-18T07:52:47.248Z,4.75
2017-11-18T07:53:47.259Z,4.77
2017-11-18T07:54:47.482Z,4.92
2017-11-18T07:55:47.212Z,4.96
2017-11-18T07:56:47.193Z,5.02
2017-11-18T07:57:47.189Z,5.17
2017-11-18T07:58:47.172Z,5.31
2017-11-18T07:59:47.174Z,5.43
2017-11-18T08:00:47.170Z,5.54
2017-11-18T08:01:47.137Z,5.51
2017-11-18T08:02:47.122Z,5.64
2017-11-18T08:03:47.121Z,5.75
2017-11-18T08:04:47.110Z,5.81
2017-11-18T08:05:47.094Z,5.9
2017-11-18T08:06:47.076Z,5.93
2017-11-18T08:07:47.062Z,6.04
2017-11-18T08:08:47.047Z,6.03
2017-11-18T08:09:47.044Z,6.17
2017-11-18T08:10:47.020Z,6.25
2017-11-18T08:11:47.002Z,6.38
2017-11-18T08:12:46.997Z,6.4
2017-11-18T08:13:46.723Z,6.49
2017-11-18T08:14:46.971Z,6.56
2017-11-18T08:15:46.970Z,6.7
2017-11-18T08:16:46.939Z,6.71
2017-11-18T08:17:46.951Z,6.74
2017-11-18T08:18:46.662Z,6.8
2017-11-18T08:19:46.912Z,6.91
2017-11-18T08:20:46.901Z,6.85
2017-11-18T08:21:46.892Z,6.85
2017-11-18T08:22:46.876Z,6.94
2017-11-18T08:23:46.861Z,7.06
2017-11-18T08:24:46.851Z,7.13
2017-11-18T08:25:46.845Z,7.1
2017-11-18T08:26:46.825Z,7.23
2017-11-18T08:27:46.815Z,7.16
2017-11-18T08:28:46.556Z,7.21
2017-11-18T08:29:46.790Z,7.27
2017-11-18T08:30:46.782Z,7.27
2017-11-18T08:31:46.778Z,7.28
2017-11-18T08:32:46.496Z,7.39
2017-11-18T08:33:46.753Z,7.42
2017-11-18T08:34:46.469Z,7.55
2017-11-18T08:35:46.729Z,7.57
2017-11-18T08:36:46.714Z,7.61
2017-11-18T08:37:46.704Z,7.5
2017-11-18T08:38:46.689Z,7.5
2017-11-18T08:39:46.710Z,7.55
2017-11-18T08:40:46.668Z,7.52
2017-11-18T08:41:46.656Z,7.52
2017-11-18T08:42:46.659Z,7.57
2017-11-18T08:43:46.640Z,7.58
2017-11-18T08:44:46.623Z,7.63
2017-11-18T08:45:46.613Z,7.61
2017-11-18T08:46:46.599Z,7.61
2017-11-18T08:47:46.586Z,7.69
2017-11-18T08:48:46.576Z,7.63
2017-11-18T08:49:46.589Z,7.63
2017-11-18T08:50:46.559Z,7.67
2017-11-18T08:51:46.566Z,7.68
2017-11-18T08:52:46.543Z,7.69
2017-11-18T08:53:46.265Z,7.68
2017-11-18T08:54:46.248Z,7.69
2017-11-18T08:55:46.503Z,7.64
2017-11-18T08:56:46.494Z,7.77
2017-11-18T08:57:46.477Z,7.77
2017-11-18T08:58:46.471Z,7.77
2017-11-18T08:59:46.464Z,7.77
2017-11-18T09:00:46.461Z,7.82
2017-11-18T09:01:46.437Z,7.85
2017-11-18T09:02:46.429Z,7.75
2017-11-18T09:03:46.414Z,7.79
2017-11-18T09:04:46.407Z,7.82
2017-11-18T09:05:46.404Z,7.77
2017-11-18T09:06:46.379Z,7.87
2017-11-18T09:07:46.380Z,7.89
2017-11-18T09:08:46.373Z,7.87
2017-11-18T09:09:46.352Z,7.86
2017-11-18T09:10:46.079Z,8
2017-11-18T09:11:46.337Z,8.02
2017-11-18T09:12:46.326Z,8.02
2017-11-18T09:13:46.311Z,8.11
2017-11-18T09:14:46.301Z,8.19
2017-11-18T09:15:46.289Z,8.22
2017-11-18T09:16:46.275Z,8.33
2017-11-18T09:17:46.269Z,8.28
2017-11-18T09:18:46.258Z,8.22
2017-11-18T09:19:46.294Z,8.3
2017-11-18T09:20:46.236Z,8.25
2017-11-18T09:21:46.224Z,8.28
2017-11-18T09:22:46.203Z,8.29
2017-11-18T09:23:46.202Z,8.25
2017-11-18T09:24:46.199Z,8.34
2017-11-18T09:25:46.175Z,8.36
2017-11-18T09:26:46.182Z,8.34
2017-11-18T09:27:46.154Z,8.41
2017-11-18T09:28:46.398Z,8.4
2017-11-18T09:29:46.160Z,8.47
2017-11-18T09:30:46.153Z,8.4
2017-11-18T09:31:46.121Z,8.48
2017-11-18T09:32:46.115Z,8.61
2017-11-18T09:33:46.095Z,8.59
2017-11-18T09:34:45.822Z,8.62
2017-11-18T09:35:46.071Z,8.68
2017-11-18T09:36:46.068Z,8.74
2017-11-18T09:37:46.080Z,8.68
2017-11-18T09:38:46.042Z,8.81
2017-11-18T09:39:46.036Z,8.83
2017-11-18T09:40:46.020Z,8.8
2017-11-18T09:41:45.752Z,8.79
2017-11-18T09:42:45.999Z,8.76
2017-11-18T09:43:45.992Z,8.79
2017-11-18T09:44:45.981Z,8.89
2017-11-18T09:45:45.969Z,8.83
2017-11-18T09:46:45.713Z,8.86
2017-11-18T09:47:45.964Z,8.87
2017-11-18T09:48:45.937Z,8.81
2017-11-18T09:49:45.670Z,8.89
2017-11-18T09:50:45.940Z,8.81
2017-11-18T09:51:45.646Z,8.77
2017-11-18T09:52:45.909Z,8.81
2017-11-18T09:53:45.914Z,8.8
2017-11-18T09:54:45.877Z,8.8
2017-11-18T09:55:45.888Z,8.91
2017-11-18T09:56:45.860Z,8.84
2017-11-18T09:57:45.847Z,8.8
2017-11-18T09:58:45.834Z,8.81
2017-11-18T09:59:46.089Z,8.81
2017-11-18T10:00:45.822Z,8.8
2017-11-18T10:01:45.833Z,8.8
2017-11-18T10:02:45.793Z,8.77
2017-11-18T10:03:45.783Z,8.74
2017-11-18T10:04:45.518Z,8.66
2017-11-18T10:05:45.769Z,8.73
2017-11-18T10:06:45.754Z,8.74
2017-11-18T10:07:45.754Z,8.76
2017-11-18T10:08:45.732Z,8.61
2017-11-18T10:09:45.727Z,8.73
2017-11-18T10:10:45.723Z,8.71
2017-11-18T10:11:45.700Z,8.62
2017-11-18T10:12:45.696Z,8.65
2017-11-18T10:13:45.682Z,8.62
2017-11-18T10:14:45.424Z,8.61
2017-11-18T10:15:45.409Z,8.59
2017-11-18T10:16:45.669Z,8.53
2017-11-18T10:17:45.649Z,8.56
2017-11-18T10:18:45.628Z,8.48
2017-11-18T10:19:45.621Z,8.58
2017-11-18T10:20:45.924Z,8.62
2017-11-18T10:21:45.611Z,8.61
2017-11-18T10:22:45.593Z,8.52
2017-11-18T10:23:45.580Z,8.47
2017-11-18T10:24:45.593Z,8.38
2017-11-18T10:25:45.578Z,8.48
2017-11-18T10:26:45.558Z,8.45
2017-11-18T10:27:45.543Z,8.43
2017-11-18T10:28:45.534Z,8.4
2017-11-18T10:29:45.526Z,8.44
2017-11-18T10:30:45.755Z,8.45
2017-11-18T10:31:45.499Z,8.45
2017-11-18T10:32:45.482Z,8.37
2017-11-18T10:33:45.485Z,8.45
2017-11-18T10:34:45.466Z,8.47
2017-11-18T10:35:45.499Z,8.41
2017-11-18T10:36:45.445Z,8.55
2017-11-18T10:37:45.453Z,8.45
2017-11-18T10:38:45.435Z,8.5
2017-11-18T10:39:45.428Z,8.41
2017-11-18T10:40:45.420Z,8.43
2017-11-18T10:41:45.390Z,8.5
2017-11-18T10:42:45.382Z,8.5
2017-11-18T10:43:45.376Z,8.48
2017-11-18T10:44:45.369Z,8.52
2017-11-18T10:45:45.350Z,8.53
2017-11-18T10:46:45.337Z,8.5
2017-11-18T10:47:45.076Z,8.52
2017-11-18T10:48:45.320Z,8.47
2017-11-18T10:49:45.305Z,8.53
2017-11-18T10:50:45.306Z,8.47
2017-11-18T10:51:45.602Z,8.38
2017-11-18T10:52:45.276Z,8.47
2017-11-18T10:53:45.270Z,8.48
2017-11-18T10:54:45.261Z,8.48
2017-11-18T10:55:44.984Z,8.45
2017-11-18T10:56:45.264Z,8.44
2017-11-18T10:57:45.278Z,8.44
2017-11-18T10:58:45.218Z,8.48
2017-11-18T10:59:45.211Z,8.37
2017-11-18T11:00:44.672Z,8.41
2017-11-18T11:01:44.920Z,8.45
2017-11-18T11:02:44.915Z,8.44
2017-11-18T11:03:44.900Z,8.45
2017-11-18T11:04:45.164Z,8.47
2017-11-18T11:05:45.138Z,8.44
2017-11-18T11:06:45.135Z,8.38
2017-11-18T11:07:44.862Z,8.36
2017-11-18T11:08:44.844Z,8.34
2017-11-18T11:09:45.105Z,8.34
2017-11-18T11:10:45.085Z,8.29
2017-11-18T11:11:45.072Z,8.33
2017-11-18T11:12:45.075Z,8.26
2017-11-18T11:13:44.812Z,8.33
2017-11-18T11:14:44.784Z,8.26
2017-11-18T11:15:45.030Z,8.33
2017-11-18T11:16:45.026Z,8.33
2017-11-18T11:17:45.008Z,8.3
2017-11-18T11:18:45.017Z,8.36
2017-11-18T11:19:44.996Z,8.38
2017-11-18T11:20:44.977Z,8.38
2017-11-18T11:21:44.973Z,8.36
2017-11-18T11:22:44.962Z,8.37
2017-11-18T11:23:44.953Z,8.33
2017-11-18T11:24:44.955Z,8.34
2017-11-18T11:25:44.923Z,8.37
2017-11-18T11:26:44.937Z,8.4
2017-11-18T11:27:44.907Z,8.37
2017-11-18T11:28:44.899Z,8.3
2017-11-18T11:29:44.898Z,8.34
2017-11-18T11:30:44.878Z,8.28
2017-11-18T11:31:44.863Z,8.33
2017-11-18T11:32:44.855Z,8.28
2017-11-18T11:33:44.861Z,8.22
2017-11-18T11:34:44.835Z,8.22
2017-11-18T11:35:44.821Z,8.22
2017-11-18T11:36:44.818Z,8.29
2017-11-18T11:37:44.801Z,8.19
2017-11-18T11:38:44.524Z,8.16
2017-11-18T11:39:44.780Z,8.23
2017-11-18T11:40:44.770Z,8.29
2017-11-18T11:41:44.766Z,8.19
2017-11-18T11:42:44.741Z,8.3
2017-11-18T11:43:44.733Z,8.28
2017-11-18T11:44:44.717Z,8.23
2017-11-18T11:45:44.715Z,8.15
2017-11-18T11:46:44.714Z,8.19
2017-11-18T11:47:44.693Z,8.18
2017-11-18T11:48:44.679Z,8.1
2017-11-18T11:49:44.687Z,8.16
2017-11-18T11:50:44.651Z,8.11
2017-11-18T11:51:44.656Z,8.2
2017-11-18T11:52:44.640Z,8.28
2017-11-18T11:53:44.363Z,8.22
2017-11-18T11:54:44.359Z,8.18
2017-11-18T11:55:44.633Z,8.18
2017-11-18T11:56:44.591Z,8.19
2017-11-18T11:57:44.326Z,8.25
2017-11-18T11:58:44.320Z,8.2
2017-11-18T11:59:44.567Z,8.29
2017-11-18T12:00:44.544Z,8.19
2017-11-18T12:01:44.548Z,8.29
2017-11-18T12:02:44.524Z,8.34
2017-11-18T12:03:44.523Z,8.37
2017-11-18T12:04:44.544Z,8.41
2017-11-18T12:05:44.502Z,8.3
2017-11-18T12:06:44.492Z,8.29
2017-11-18T12:07:44.478Z,8.44
2017-11-18T12:08:44.459Z,8.4
2017-11-18T12:09:44.463Z,8.41
2017-11-18T12:10:44.446Z,8.48
2017-11-18T12:11:44.434Z,8.45
2017-11-18T12:12:44.426Z,8.37
2017-11-18T12:13:44.409Z,8.5
2017-11-18T12:14:44.402Z,8.45
2017-11-18T12:15:44.435Z,8.43
2017-11-18T12:16:44.374Z,8.41
2017-11-18T12:17:44.381Z,8.52
2017-11-18T12:18:44.098Z,8.5
2017-11-18T12:19:44.347Z,8.48
2017-11-18T12:20:44.331Z,8.61
2017-11-18T12:21:44.319Z,8.58
2017-11-18T12:22:44.056Z,8.74
2017-11-18T12:23:44.057Z,8.66
2017-11-18T12:24:44.298Z,8.65
2017-11-18T12:25:44.277Z,8.73
2017-11-18T12:26:44.268Z,8.65
2017-11-18T12:27:44.257Z,8.71
2017-11-18T12:28:44.260Z,8.79
2017-11-18T12:29:44.245Z,8.83
2017-11-18T12:30:44.271Z,8.79
2017-11-18T12:31:43.973Z,8.8
2017-11-18T12:32:44.218Z,8.77
2017-11-18T12:33:44.216Z,8.87
2017-11-18T12:34:44.202Z,8.83
2017-11-18T12:35:44.191Z,8.73
2017-11-18T12:36:44.188Z,8.84
2017-11-18T12:37:44.174Z,8.79
2017-11-18T12:38:44.177Z,8.81
2017-11-18T12:39:44.138Z,8.86
2017-11-18T12:40:44.127Z,8.96
2017-11-18T12:41:43.865Z,8.94
2017-11-18T12:42:44.132Z,9.04
2017-11-18T12:43:44.105Z,9.04
2017-11-18T12:44:44.084Z,9.14
2017-11-18T12:45:44.079Z,9.21
2017-11-18T12:46:44.077Z,9.17
2017-11-18T12:47:44.070Z,9.13
2017-11-18T12:48:44.050Z,9.17
2017-11-18T12:49:44.036Z,9.24
2017-11-18T12:50:44.052Z,9.14
2017-11-18T12:51:44.041Z,9.14
2017-11-18T12:52:44.001Z,9.23
2017-11-18T12:53:43.997Z,9.15
2017-11-18T12:54:43.990Z,9.15
2017-11-18T12:55:43.975Z,9.18
2017-11-18T12:56:43.724Z,9.29
2017-11-18T12:57:43.960Z,9.28
2017-11-18T12:58:43.690Z,9.33
2017-11-18T12:59:43.938Z,9.29
2017-11-18T13:00:43.927Z,9.31
2017-11-18T13:01:43.912Z,9.35
2017-11-18T13:02:43.907Z,9.36
2017-11-18T13:03:43.903Z,9.35
2017-11-18T13:04:43.889Z,9.29
2017-11-18T13:05:43.883Z,9.31
2017-11-18T13:06:43.612Z,9.36
2017-11-18T13:07:43.858Z,9.32
2017-11-18T13:08:43.849Z,9.26
2017-11-18T13:09:43.842Z,9.33
2017-11-18T13:10:43.842Z,9.28
2017-11-18T13:11:43.819Z,9.38
2017-11-18T13:12:43.553Z,9.26
2017-11-18T13:13:43.803Z,9.32
2017-11-18T13:14:43.530Z,9.26
2017-11-18T13:15:43.777Z,9.21
2017-11-18T13:16:43.773Z,9.21
2017-11-18T13:17:43.760Z,9.13
2017-11-18T13:18:43.754Z,9.04
2017-11-18T13:19:43.737Z,9.01
2017-11-18T13:20:43.738Z,9.01
2017-11-18T13:21:43.724Z,8.94